sensor_id;sensor_type;location;lat;lon;timestamp;P1;durP1;ratioP1;P2;durP2;ratioP2
20671;SDS011;10495;50.922;4.760;2023-09-08T00:02:22;9.70;;;8.80;;
20671;SDS011;10495;50.922;4.760;2023-09-08T00:04:51;8.63;;;7.80;;
20671;SDS011;10495;50.922;4.760;2023-09-08T00:07:16;9.93;;;8.00;;
20671;SDS011;10495;50.922;4.760;2023-09-08T00:09:42;8.55;;;7.55;;
20671;SDS011;10495;50.922;4.760;2023-09-08T00:12:08;8.15;;;7.05;;
20671;SDS011;10495;50.922;4.760;2023-09-08T00:14:33;10.00;;;7.28;;
20671;SDS011;10495;50.922;4.760;2023-09-08T00:19:34;8.18;;;7.38;;
20671;SDS011;10495;50.922;4.760;2023-09-08T00:21:59;8.27;;;7.47;;
20671;SDS011;10495;50.922;4.760;2023-09-08T00:24:25;10.30;;;8.05;;
20671;SDS011;10495;50.922;4.760;2023-09-08T00:26:51;8.82;;;7.57;;
20671;SDS011;10495;50.922;4.760;2023-09-08T00:29:20;8.05;;;7.25;;
20671;SDS011;10495;50.922;4.760;2023-09-08T00:31:45;10.63;;;8.20;;
20671;SDS011;10495;50.922;4.760;2023-09-08T00:34:11;10.27;;;9.18;;
20671;SDS011;10495;50.922;4.760;2023-09-08T00:36:37;9.90;;;8.52;;
20671;SDS011;10495;50.922;4.760;2023-09-08T00:39:02;8.73;;;7.87;;
20671;SDS011;10495;50.922;4.760;2023-09-08T00:41:28;9.60;;;7.35;;
20671;SDS011;10495;50.922;4.760;2023-09-08T00:43:54;8.48;;;7.68;;
20671;SDS011;10495;50.922;4.760;2023-09-08T00:46:19;8.52;;;7.13;;
20671;SDS011;10495;50.922;4.760;2023-09-08T00:48:45;8.20;;;7.30;;
20671;SDS011;10495;50.922;4.760;2023-09-08T00:51:11;9.10;;;7.17;;
20671;SDS011;10495;50.922;4.760;2023-09-08T00:53:37;7.93;;;6.90;;
20671;SDS011;10495;50.922;4.760;2023-09-08T00:56:03;8.13;;;7.27;;
20671;SDS011;10495;50.922;4.760;2023-09-08T00:58:29;7.90;;;6.70;;
20671;SDS011;10495;50.922;4.760;2023-09-08T01:00:55;7.57;;;6.80;;
20671;SDS011;10495;50.922;4.760;2023-09-08T01:03:22;9.20;;;7.55;;
20671;SDS011;10495;50.922;4.760;2023-09-08T01:05:49;10.52;;;7.57;;
20671;SDS011;10495;50.922;4.760;2023-09-08T01:08:15;10.95;;;9.07;;
20671;SDS011;10495;50.922;4.760;2023-09-08T01:10:41;9.15;;;8.25;;
20671;SDS011;10495;50.922;4.760;2023-09-08T01:13:07;7.80;;;6.85;;
20671;SDS011;10495;50.922;4.760;2023-09-08T01:15:33;8.32;;;7.05;;
20671;SDS011;10495;50.922;4.760;2023-09-08T01:17:59;9.33;;;7.30;;
20671;SDS011;10495;50.922;4.760;2023-09-08T01:20:26;10.30;;;7.10;;
20671;SDS011;10495;50.922;4.760;2023-09-08T01:26:04;7.70;;;7.00;;
20671;SDS011;10495;50.922;4.760;2023-09-08T01:28:32;7.97;;;7.07;;
20671;SDS011;10495;50.922;4.760;2023-09-08T01:30:58;7.65;;;6.85;;
20671;SDS011;10495;50.922;4.760;2023-09-08T01:33:24;9.57;;;7.75;;
20671;SDS011;10495;50.922;4.760;2023-09-08T01:35:51;8.90;;;6.87;;
20671;SDS011;10495;50.922;4.760;2023-09-08T01:38:17;9.90;;;8.73;;
20671;SDS011;10495;50.922;4.760;2023-09-08T01:40:42;8.57;;;7.63;;
20671;SDS011;10495;50.922;4.760;2023-09-08T01:43:08;10.13;;;7.05;;
20671;SDS011;10495;50.922;4.760;2023-09-08T01:45:33;7.60;;;6.90;;
20671;SDS011;10495;50.922;4.760;2023-09-08T01:47:59;8.15;;;7.35;;
20671;SDS011;10495;50.922;4.760;2023-09-08T01:50:25;8.33;;;7.43;;
20671;SDS011;10495;50.922;4.760;2023-09-08T01:52:51;12.35;;;7.82;;
20671;SDS011;10495;50.922;4.760;2023-09-08T01:55:16;10.73;;;8.15;;
20671;SDS011;10495;50.922;4.760;2023-09-08T01:57:43;9.23;;;8.33;;
20671;SDS011;10495;50.922;4.760;2023-09-08T02:00:11;8.97;;;8.03;;
20671;SDS011;10495;50.922;4.760;2023-09-08T02:02:38;8.23;;;7.30;;
20671;SDS011;10495;50.922;4.760;2023-09-08T02:05:03;10.70;;;7.80;;
20671;SDS011;10495;50.922;4.760;2023-09-08T02:07:29;9.83;;;7.53;;
20671;SDS011;10495;50.922;4.760;2023-09-08T02:09:56;8.57;;;7.67;;
20671;SDS011;10495;50.922;4.760;2023-09-08T02:12:21;8.87;;;7.70;;
20671;SDS011;10495;50.922;4.760;2023-09-08T02:14:47;7.80;;;6.77;;
20671;SDS011;10495;50.922;4.760;2023-09-08T02:17:13;7.50;;;6.77;;
20671;SDS011;10495;50.922;4.760;2023-09-08T02:19:38;8.07;;;6.77;;
20671;SDS011;10495;50.922;4.760;2023-09-08T02:22:04;8.40;;;6.90;;
20671;SDS011;10495;50.922;4.760;2023-09-08T02:24:30;7.13;;;6.43;;
20671;SDS011;10495;50.922;4.760;2023-09-08T02:26:55;7.33;;;6.63;;
20671;SDS011;10495;50.922;4.760;2023-09-08T02:29:21;7.25;;;6.55;;
20671;SDS011;10495;50.922;4.760;2023-09-08T02:31:47;6.80;;;5.83;;
20671;SDS011;10495;50.922;4.760;2023-09-08T02:34:13;6.83;;;6.23;;
20671;SDS011;10495;50.922;4.760;2023-09-08T02:36:39;8.67;;;7.50;;
20671;SDS011;10495;50.922;4.760;2023-09-08T02:39:05;7.75;;;6.63;;
20671;SDS011;10495;50.922;4.760;2023-09-08T02:41:30;7.37;;;6.67;;
20671;SDS011;10495;50.922;4.760;2023-09-08T02:43:56;6.70;;;6.10;;
20671;SDS011;10495;50.922;4.760;2023-09-08T02:46:22;8.93;;;6.73;;
20671;SDS011;10495;50.922;4.760;2023-09-08T02:48:47;11.07;;;6.73;;
20671;SDS011;10495;50.922;4.760;2023-09-08T02:51:13;12.90;;;7.60;;
20671;SDS011;10495;50.922;4.760;2023-09-08T02:53:39;8.63;;;7.63;;
20671;SDS011;10495;50.922;4.760;2023-09-08T02:56:04;7.73;;;6.83;;
20671;SDS011;10495;50.922;4.760;2023-09-08T02:58:30;8.13;;;7.33;;
20671;SDS011;10495;50.922;4.760;2023-09-08T03:01:08;9.53;;;7.53;;
20671;SDS011;10495;50.922;4.760;2023-09-08T03:03:39;7.67;;;6.87;;
20671;SDS011;10495;50.922;4.760;2023-09-08T03:06:10;8.23;;;6.60;;
20671;SDS011;10495;50.922;4.760;2023-09-08T03:08:36;9.35;;;8.25;;
20671;SDS011;10495;50.922;4.760;2023-09-08T03:11:02;13.63;;;9.20;;
20671;SDS011;10495;50.922;4.760;2023-09-08T03:13:29;11.15;;;8.70;;
20671;SDS011;10495;50.922;4.760;2023-09-08T03:15:55;9.40;;;8.40;;
20671;SDS011;10495;50.922;4.760;2023-09-08T03:18:22;7.30;;;6.60;;
20671;SDS011;10495;50.922;4.760;2023-09-08T03:20:48;7.82;;;7.00;;
20671;SDS011;10495;50.922;4.760;2023-09-08T03:23:15;8.23;;;7.33;;
20671;SDS011;10495;50.922;4.760;2023-09-08T03:25:40;9.70;;;7.50;;
20671;SDS011;10495;50.922;4.760;2023-09-08T03:28:06;9.83;;;8.23;;
20671;SDS011;10495;50.922;4.760;2023-09-08T03:30:32;12.07;;;9.17;;
20671;SDS011;10495;50.922;4.760;2023-09-08T03:32:57;9.82;;;8.00;;
20671;SDS011;10495;50.922;4.760;2023-09-08T03:35:23;10.07;;;8.85;;
20671;SDS011;10495;50.922;4.760;2023-09-08T03:37:49;11.30;;;9.33;;
20671;SDS011;10495;50.922;4.760;2023-09-08T03:40:14;11.47;;;8.23;;
20671;SDS011;10495;50.922;4.760;2023-09-08T03:42:40;8.43;;;7.53;;
20671;SDS011;10495;50.922;4.760;2023-09-08T03:45:07;7.77;;;6.97;;
20671;SDS011;10495;50.922;4.760;2023-09-08T03:47:33;8.53;;;7.10;;
20671;SDS011;10495;50.922;4.760;2023-09-08T03:49:59;7.20;;;6.23;;
20671;SDS011;10495;50.922;4.760;2023-09-08T03:52:24;6.83;;;6.13;;
20671;SDS011;10495;50.922;4.760;2023-09-08T03:54:50;10.23;;;6.90;;
20671;SDS011;10495;50.922;4.760;2023-09-08T03:57:16;7.80;;;7.03;;
20671;SDS011;10495;50.922;4.760;2023-09-08T03:59:41;8.47;;;7.67;;
20671;SDS011;10495;50.922;4.760;2023-09-08T04:02:07;8.57;;;6.97;;
20671;SDS011;10495;50.922;4.760;2023-09-08T04:04:32;8.43;;;6.63;;
20671;SDS011;10495;50.922;4.760;2023-09-08T04:06:58;7.57;;;6.77;;
20671;SDS011;10495;50.922;4.760;2023-09-08T04:09:24;8.27;;;7.33;;
20671;SDS011;10495;50.922;4.760;2023-09-08T04:11:49;10.30;;;8.80;;
20671;SDS011;10495;50.922;4.760;2023-09-08T04:14:15;10.63;;;8.67;;
20671;SDS011;10495;50.922;4.760;2023-09-08T04:16:41;10.80;;;8.70;;
20671;SDS011;10495;50.922;4.760;2023-09-08T04:19:07;9.13;;;8.10;;
20671;SDS011;10495;50.922;4.760;2023-09-08T04:21:32;9.10;;;6.80;;
20671;SDS011;10495;50.922;4.760;2023-09-08T04:23:58;7.13;;;6.43;;
20671;SDS011;10495;50.922;4.760;2023-09-08T04:26:23;7.50;;;6.50;;
20671;SDS011;10495;50.922;4.760;2023-09-08T04:28:49;8.63;;;6.63;;
20671;SDS011;10495;50.922;4.760;2023-09-08T04:31:15;6.97;;;6.27;;
20671;SDS011;10495;50.922;4.760;2023-09-08T04:33:43;8.03;;;7.20;;
20671;SDS011;10495;50.922;4.760;2023-09-08T04:36:08;7.03;;;6.37;;
20671;SDS011;10495;50.922;4.760;2023-09-08T04:38:36;7.87;;;6.30;;
20671;SDS011;10495;50.922;4.760;2023-09-08T04:41:01;7.40;;;6.47;;
20671;SDS011;10495;50.922;4.760;2023-09-08T04:43:27;6.93;;;6.03;;
20671;SDS011;10495;50.922;4.760;2023-09-08T04:45:52;7.87;;;7.07;;
20671;SDS011;10495;50.922;4.760;2023-09-08T04:48:18;7.67;;;6.87;;
20671;SDS011;10495;50.922;4.760;2023-09-08T04:50:44;8.60;;;6.93;;
20671;SDS011;10495;50.922;4.760;2023-09-08T04:53:09;8.23;;;7.30;;
20671;SDS011;10495;50.922;4.760;2023-09-08T04:55:35;9.30;;;7.30;;
20671;SDS011;10495;50.922;4.760;2023-09-08T04:58:00;8.60;;;6.70;;
20671;SDS011;10495;50.922;4.760;2023-09-08T05:00:26;7.40;;;6.70;;
20671;SDS011;10495;50.922;4.760;2023-09-08T05:02:52;10.23;;;6.87;;
20671;SDS011;10495;50.922;4.760;2023-09-08T05:05:17;8.10;;;6.27;;
20671;SDS011;10495;50.922;4.760;2023-09-08T05:07:43;7.23;;;6.53;;
20671;SDS011;10495;50.922;4.760;2023-09-08T05:10:10;7.87;;;6.53;;
20671;SDS011;10495;50.922;4.760;2023-09-08T05:12:36;9.43;;;7.90;;
20671;SDS011;10495;50.922;4.760;2023-09-08T05:15:01;7.60;;;6.90;;
20671;SDS011;10495;50.922;4.760;2023-09-08T05:17:32;8.27;;;6.67;;
20671;SDS011;10495;50.922;4.760;2023-09-08T05:19:58;9.23;;;7.00;;
20671;SDS011;10495;50.922;4.760;2023-09-08T05:22:23;8.47;;;6.93;;
20671;SDS011;10495;50.922;4.760;2023-09-08T05:24:49;9.73;;;7.70;;
20671;SDS011;10495;50.922;4.760;2023-09-08T05:27:14;15.70;;;9.63;;
20671;SDS011;10495;50.922;4.760;2023-09-08T05:29:40;10.10;;;9.00;;
20671;SDS011;10495;50.922;4.760;2023-09-08T05:32:06;12.17;;;9.80;;
20671;SDS011;10495;50.922;4.760;2023-09-08T05:34:31;8.57;;;7.67;;
20671;SDS011;10495;50.922;4.760;2023-09-08T05:36:57;10.00;;;8.20;;
20671;SDS011;10495;50.922;4.760;2023-09-08T05:39:23;10.87;;;7.27;;
20671;SDS011;10495;50.922;4.760;2023-09-08T05:41:48;9.17;;;7.43;;
20671;SDS011;10495;50.922;4.760;2023-09-08T05:44:14;9.87;;;6.93;;
20671;SDS011;10495;50.922;4.760;2023-09-08T05:46:39;9.13;;;7.00;;
20671;SDS011;10495;50.922;4.760;2023-09-08T05:49:05;7.30;;;6.60;;
20671;SDS011;10495;50.922;4.760;2023-09-08T05:51:31;8.23;;;7.13;;
20671;SDS011;10495;50.922;4.760;2023-09-08T05:53:57;9.10;;;6.17;;
20671;SDS011;10495;50.922;4.760;2023-09-08T05:56:29;8.60;;;6.60;;
20671;SDS011;10495;50.922;4.760;2023-09-08T05:58:56;8.13;;;6.77;;
20671;SDS011;10495;50.922;4.760;2023-09-08T06:01:23;8.83;;;7.07;;
20671;SDS011;10495;50.922;4.760;2023-09-08T06:03:49;9.37;;;6.70;;
20671;SDS011;10495;50.922;4.760;2023-09-08T06:06:15;9.10;;;7.63;;
20671;SDS011;10495;50.922;4.760;2023-09-08T06:08:40;11.37;;;7.80;;
20671;SDS011;10495;50.922;4.760;2023-09-08T06:11:06;11.70;;;8.07;;
20671;SDS011;10495;50.922;4.760;2023-09-08T06:13:31;10.17;;;7.90;;
20671;SDS011;10495;50.922;4.760;2023-09-08T06:15:58;13.07;;;8.10;;
20671;SDS011;10495;50.922;4.760;2023-09-08T06:18:23;7.95;;;7.15;;
20671;SDS011;10495;50.922;4.760;2023-09-08T06:20:49;7.60;;;6.90;;
20671;SDS011;10495;50.922;4.760;2023-09-08T06:23:14;7.97;;;6.67;;
20671;SDS011;10495;50.922;4.760;2023-09-08T06:25:40;10.30;;;7.43;;
20671;SDS011;10495;50.922;4.760;2023-09-08T06:28:06;7.15;;;6.45;;
20671;SDS011;10495;50.922;4.760;2023-09-08T06:30:32;11.20;;;6.82;;
20671;SDS011;10495;50.922;4.760;2023-09-08T06:32:57;7.20;;;6.50;;
20671;SDS011;10495;50.922;4.760;2023-09-08T06:35:23;8.55;;;7.70;;
20671;SDS011;10495;50.922;4.760;2023-09-08T06:37:50;8.05;;;7.25;;
20671;SDS011;10495;50.922;4.760;2023-09-08T06:40:16;7.72;;;6.97;;
20671;SDS011;10495;50.922;4.760;2023-09-08T06:42:41;9.82;;;7.35;;
20671;SDS011;10495;50.922;4.760;2023-09-08T06:45:07;7.47;;;6.78;;
20671;SDS011;10495;50.922;4.760;2023-09-08T06:47:33;8.75;;;7.80;;
20671;SDS011;10495;50.922;4.760;2023-09-08T06:49:59;7.88;;;7.07;;
20671;SDS011;10495;50.922;4.760;2023-09-08T06:52:24;7.65;;;6.85;;
20671;SDS011;10495;50.922;4.760;2023-09-08T06:54:50;8.90;;;6.43;;
20671;SDS011;10495;50.922;4.760;2023-09-08T06:57:17;8.73;;;6.70;;
20671;SDS011;10495;50.922;4.760;2023-09-08T06:59:44;8.13;;;6.53;;
20671;SDS011;10495;50.922;4.760;2023-09-08T07:02:10;7.80;;;6.57;;
20671;SDS011;10495;50.922;4.760;2023-09-08T07:04:36;7.22;;;6.32;;
20671;SDS011;10495;50.922;4.760;2023-09-08T07:07:01;7.70;;;6.90;;
20671;SDS011;10495;50.922;4.760;2023-09-08T07:09:32;7.72;;;6.90;;
20671;SDS011;10495;50.922;4.760;2023-09-08T07:12:02;7.25;;;6.50;;
20671;SDS011;10495;50.922;4.760;2023-09-08T07:14:29;7.55;;;5.88;;
20671;SDS011;10495;50.922;4.760;2023-09-08T07:16:56;7.88;;;6.53;;
20671;SDS011;10495;50.922;4.760;2023-09-08T07:19:21;7.30;;;6.43;;
20671;SDS011;10495;50.922;4.760;2023-09-08T07:21:47;6.47;;;5.85;;
20671;SDS011;10495;50.922;4.760;2023-09-08T07:24:12;7.20;;;6.60;;
20671;SDS011;10495;50.922;4.760;2023-09-08T07:26:38;7.82;;;6.78;;
20671;SDS011;10495;50.922;4.760;2023-09-08T07:29:04;8.25;;;5.85;;
20671;SDS011;10495;50.922;4.760;2023-09-08T07:31:29;8.45;;;6.53;;
20671;SDS011;10495;50.922;4.760;2023-09-08T07:33:55;7.90;;;6.93;;
20671;SDS011;10495;50.922;4.760;2023-09-08T07:36:21;7.43;;;6.70;;
20671;SDS011;10495;50.922;4.760;2023-09-08T07:38:46;7.05;;;6.32;;
20671;SDS011;10495;50.922;4.760;2023-09-08T07:41:12;6.60;;;6.00;;
20671;SDS011;10495;50.922;4.760;2023-09-08T07:43:38;6.93;;;6.20;;
20671;SDS011;10495;50.922;4.760;2023-09-08T07:46:06;7.88;;;7.07;;
20671;SDS011;10495;50.922;4.760;2023-09-08T07:48:32;6.68;;;5.90;;
20671;SDS011;10495;50.922;4.760;2023-09-08T07:50:58;8.50;;;6.68;;
20671;SDS011;10495;50.922;4.760;2023-09-08T07:53:25;8.27;;;6.85;;
20671;SDS011;10495;50.922;4.760;2023-09-08T07:55:51;7.47;;;6.35;;
20671;SDS011;10495;50.922;4.760;2023-09-08T07:58:17;7.82;;;5.88;;
20671;SDS011;10495;50.922;4.760;2023-09-08T08:00:42;8.68;;;7.35;;
20671;SDS011;10495;50.922;4.760;2023-09-08T08:03:08;6.90;;;6.20;;
20671;SDS011;10495;50.922;4.760;2023-09-08T08:05:34;9.63;;;7.38;;
20671;SDS011;10495;50.922;4.760;2023-09-08T08:08:00;7.45;;;6.25;;
20671;SDS011;10495;50.922;4.760;2023-09-08T08:10:25;6.88;;;6.28;;
20671;SDS011;10495;50.922;4.760;2023-09-08T08:12:51;7.35;;;6.47;;
20671;SDS011;10495;50.922;4.760;2023-09-08T08:15:18;9.18;;;6.80;;
20671;SDS011;10495;50.922;4.760;2023-09-08T08:17:45;7.50;;;6.20;;
20671;SDS011;10495;50.922;4.760;2023-09-08T08:20:11;11.88;;;6.03;;
20671;SDS011;10495;50.922;4.760;2023-09-08T08:22:42;8.05;;;6.72;;
20671;SDS011;10495;50.922;4.760;2023-09-08T08:25:08;10.38;;;6.82;;
20671;SDS011;10495;50.922;4.760;2023-09-08T08:27:34;7.20;;;6.05;;
20671;SDS011;10495;50.922;4.760;2023-09-08T08:30:00;8.05;;;6.60;;
20671;SDS011;10495;50.922;4.760;2023-09-08T08:32:28;8.88;;;6.72;;
20671;SDS011;10495;50.922;4.760;2023-09-08T08:34:54;7.28;;;6.53;;
20671;SDS011;10495;50.922;4.760;2023-09-08T08:37:20;7.47;;;6.78;;
20671;SDS011;10495;50.922;4.760;2023-09-08T08:39:46;7.53;;;6.72;;
20671;SDS011;10495;50.922;4.760;2023-09-08T08:42:12;9.15;;;6.30;;
20671;SDS011;10495;50.922;4.760;2023-09-08T08:44:39;7.05;;;6.22;;
20671;SDS011;10495;50.922;4.760;2023-09-08T08:47:09;8.18;;;6.70;;
20671;SDS011;10495;50.922;4.760;2023-09-08T08:49:36;7.60;;;6.28;;
20671;SDS011;10495;50.922;4.760;2023-09-08T08:52:04;6.90;;;6.22;;
20671;SDS011;10495;50.922;4.760;2023-09-08T08:54:36;7.10;;;6.47;;
20671;SDS011;10495;50.922;4.760;2023-09-08T08:57:04;8.57;;;6.53;;
20671;SDS011;10495;50.922;4.760;2023-09-08T08:59:30;7.53;;;6.45;;
20671;SDS011;10495;50.922;4.760;2023-09-08T09:01:57;7.10;;;6.40;;
20671;SDS011;10495;50.922;4.760;2023-09-08T09:04:24;8.35;;;6.55;;
20671;SDS011;10495;50.922;4.760;2023-09-08T09:06:52;10.52;;;6.47;;
20671;SDS011;10495;50.922;4.760;2023-09-08T09:09:18;9.60;;;6.38;;
20671;SDS011;10495;50.922;4.760;2023-09-08T09:11:44;7.35;;;6.50;;
20671;SDS011;10495;50.922;4.760;2023-09-08T09:14:10;7.32;;;6.55;;
20671;SDS011;10495;50.922;4.760;2023-09-08T09:16:40;6.75;;;6.05;;
20671;SDS011;10495;50.922;4.760;2023-09-08T09:19:09;8.20;;;6.63;;
20671;SDS011;10495;50.922;4.760;2023-09-08T09:21:53;9.13;;;6.25;;
20671;SDS011;10495;50.922;4.760;2023-09-08T09:24:33;9.50;;;6.20;;
20671;SDS011;10495;50.922;4.760;2023-09-08T09:27:08;7.60;;;6.28;;
20671;SDS011;10495;50.922;4.760;2023-09-08T09:29:43;7.07;;;6.38;;
20671;SDS011;10495;50.922;4.760;2023-09-08T09:32:13;6.95;;;6.20;;
20671;SDS011;10495;50.922;4.760;2023-09-08T09:34:47;10.27;;;6.85;;
20671;SDS011;10495;50.922;4.760;2023-09-08T09:37:14;8.07;;;6.75;;
20671;SDS011;10495;50.922;4.760;2023-09-08T09:39:39;6.60;;;5.97;;
20671;SDS011;10495;50.922;4.760;2023-09-08T09:42:05;6.20;;;5.55;;
20671;SDS011;10495;50.922;4.760;2023-09-08T09:44:31;6.63;;;6.00;;
20671;SDS011;10495;50.922;4.760;2023-09-08T09:46:57;7.75;;;6.53;;
20671;SDS011;10495;50.922;4.760;2023-09-08T09:49:25;6.70;;;6.10;;
20671;SDS011;10495;50.922;4.760;2023-09-08T09:51:56;8.63;;;6.72;;
20671;SDS011;10495;50.922;4.760;2023-09-08T09:54:23;7.05;;;5.78;;
20671;SDS011;10495;50.922;4.760;2023-09-08T09:56:49;6.95;;;6.35;;
20671;SDS011;10495;50.922;4.760;2023-09-08T09:59:17;7.20;;;6.43;;
20671;SDS011;10495;50.922;4.760;2023-09-08T10:01:43;8.13;;;6.25;;
20671;SDS011;10495;50.922;4.760;2023-09-08T10:04:11;7.63;;;6.72;;
20671;SDS011;10495;50.922;4.760;2023-09-08T10:06:37;7.88;;;6.88;;
20671;SDS011;10495;50.922;4.760;2023-09-08T10:09:04;7.13;;;6.50;;
20671;SDS011;10495;50.922;4.760;2023-09-08T10:11:43;7.10;;;6.20;;
20671;SDS011;10495;50.922;4.760;2023-09-08T10:14:14;9.05;;;6.70;;
20671;SDS011;10495;50.922;4.760;2023-09-08T10:16:41;7.40;;;6.40;;
20671;SDS011;10495;50.922;4.760;2023-09-08T10:19:09;7.45;;;6.03;;
20671;SDS011;10495;50.922;4.760;2023-09-08T10:21:39;7.03;;;6.40;;
20671;SDS011;10495;50.922;4.760;2023-09-08T10:24:18;8.52;;;6.82;;
20671;SDS011;10495;50.922;4.760;2023-09-08T10:27:07;8.38;;;6.45;;
20671;SDS011;10495;50.922;4.760;2023-09-08T10:29:34;7.47;;;5.93;;
20671;SDS011;10495;50.922;4.760;2023-09-08T10:32:00;8.02;;;6.80;;
20671;SDS011;10495;50.922;4.760;2023-09-08T10:34:27;7.82;;;7.03;;
20671;SDS011;10495;50.922;4.760;2023-09-08T10:36:54;8.80;;;7.22;;
20671;SDS011;10495;50.922;4.760;2023-09-08T10:39:27;12.13;;;7.38;;
20671;SDS011;10495;50.922;4.760;2023-09-08T10:47:14;6.78;;;6.18;;
20671;SDS011;10495;50.922;4.760;2023-09-08T10:50:01;7.50;;;6.80;;
20671;SDS011;10495;50.922;4.760;2023-09-08T10:52:27;10.32;;;6.68;;
20671;SDS011;10495;50.922;4.760;2023-09-08T10:54:54;7.57;;;6.72;;
20671;SDS011;10495;50.922;4.760;2023-09-08T10:57:21;11.52;;;7.22;;
20671;SDS011;10495;50.922;4.760;2023-09-08T11:02:36;6.78;;;6.07;;
20671;SDS011;10495;50.922;4.760;2023-09-08T11:05:04;9.25;;;7.15;;
20671;SDS011;10495;50.922;4.760;2023-09-08T11:07:36;8.00;;;6.88;;
20671;SDS011;10495;50.922;4.760;2023-09-08T11:10:02;7.43;;;6.82;;
20671;SDS011;10495;50.922;4.760;2023-09-08T11:12:29;8.15;;;6.88;;
20671;SDS011;10495;50.922;4.760;2023-09-08T11:14:56;10.68;;;7.20;;
20671;SDS011;10495;50.922;4.760;2023-09-08T11:17:28;7.28;;;6.57;;
20671;SDS011;10495;50.922;4.760;2023-09-08T11:19:54;7.93;;;7.13;;
20671;SDS011;10495;50.922;4.760;2023-09-08T11:22:21;8.13;;;6.35;;
20671;SDS011;10495;50.922;4.760;2023-09-08T11:24:49;7.47;;;6.68;;
20671;SDS011;10495;50.922;4.760;2023-09-08T11:27:16;7.85;;;7.05;;
20671;SDS011;10495;50.922;4.760;2023-09-08T11:29:43;7.05;;;6.05;;
20671;SDS011;10495;50.922;4.760;2023-09-08T11:32:09;8.00;;;6.80;;
20671;SDS011;10495;50.922;4.760;2023-09-08T11:34:36;7.13;;;6.00;;
20671;SDS011;10495;50.922;4.760;2023-09-08T11:37:07;7.10;;;6.40;;
20671;SDS011;10495;50.922;4.760;2023-09-08T11:39:37;6.78;;;6.07;;
20671;SDS011;10495;50.922;4.760;2023-09-08T11:42:03;7.13;;;6.43;;
20671;SDS011;10495;50.922;4.760;2023-09-08T11:44:29;7.63;;;5.80;;
20671;SDS011;10495;50.922;4.760;2023-09-08T11:46:55;6.72;;;6.13;;
20671;SDS011;10495;50.922;4.760;2023-09-08T11:49:22;8.43;;;5.97;;
20671;SDS011;10495;50.922;4.760;2023-09-08T11:51:49;6.80;;;5.85;;
20671;SDS011;10495;50.922;4.760;2023-09-08T11:54:14;7.68;;;5.35;;
20671;SDS011;10495;50.922;4.760;2023-09-08T11:56:40;7.60;;;5.43;;
20671;SDS011;10495;50.922;4.760;2023-09-08T11:59:06;5.82;;;5.22;;
20671;SDS011;10495;50.922;4.760;2023-09-08T12:01:33;9.40;;;5.53;;
20671;SDS011;10495;50.922;4.760;2023-09-08T12:03:58;9.15;;;5.50;;
20671;SDS011;10495;50.922;4.760;2023-09-08T12:06:27;7.60;;;5.78;;
20671;SDS011;10495;50.922;4.760;2023-09-08T12:08:53;8.23;;;5.25;;
20671;SDS011;10495;50.922;4.760;2023-09-08T12:11:20;6.05;;;5.47;;
20671;SDS011;10495;50.922;4.760;2023-09-08T12:13:46;7.45;;;5.72;;
20671;SDS011;10495;50.922;4.760;2023-09-08T12:16:19;6.05;;;5.40;;
20671;SDS011;10495;50.922;4.760;2023-09-08T12:18:48;7.03;;;5.72;;
20671;SDS011;10495;50.922;4.760;2023-09-08T12:21:14;7.43;;;5.80;;
20671;SDS011;10495;50.922;4.760;2023-09-08T12:23:47;8.55;;;4.72;;
20671;SDS011;10495;50.922;4.760;2023-09-08T12:26:17;6.05;;;5.55;;
20671;SDS011;10495;50.922;4.760;2023-09-08T12:28:43;6.07;;;5.18;;
20671;SDS011;10495;50.922;4.760;2023-09-08T12:31:09;8.30;;;4.88;;
20671;SDS011;10495;50.922;4.760;2023-09-08T12:33:35;6.57;;;5.07;;
20671;SDS011;10495;50.922;4.760;2023-09-08T12:36:14;7.95;;;5.25;;
20671;SDS011;10495;50.922;4.760;2023-09-08T12:38:46;11.25;;;5.38;;
20671;SDS011;10495;50.922;4.760;2023-09-08T12:41:13;7.18;;;5.32;;
20671;SDS011;10495;50.922;4.760;2023-09-08T12:43:40;9.43;;;5.35;;
20671;SDS011;10495;50.922;4.760;2023-09-08T12:46:05;6.55;;;5.25;;
20671;SDS011;10495;50.922;4.760;2023-09-08T12:48:31;6.68;;;5.00;;
20671;SDS011;10495;50.922;4.760;2023-09-08T12:50:56;8.60;;;5.95;;
20671;SDS011;10495;50.922;4.760;2023-09-08T12:53:23;7.32;;;5.38;;
20671;SDS011;10495;50.922;4.760;2023-09-08T12:55:49;6.20;;;5.50;;
20671;SDS011;10495;50.922;4.760;2023-09-08T12:58:15;18.73;;;6.20;;
20671;SDS011;10495;50.922;4.760;2023-09-08T13:00:42;9.25;;;5.40;;
20671;SDS011;10495;50.922;4.760;2023-09-08T13:03:08;6.10;;;5.50;;
20671;SDS011;10495;50.922;4.760;2023-09-08T13:05:34;6.35;;;5.65;;
20671;SDS011;10495;50.922;4.760;2023-09-08T13:08:00;7.18;;;5.57;;
20671;SDS011;10495;50.922;4.760;2023-09-08T13:10:26;10.90;;;5.97;;
20671;SDS011;10495;50.922;4.760;2023-09-08T13:12:52;8.38;;;5.63;;
20671;SDS011;10495;50.922;4.760;2023-09-08T13:15:18;8.40;;;5.47;;
20671;SDS011;10495;50.922;4.760;2023-09-08T13:17:43;8.98;;;5.68;;
20671;SDS011;10495;50.922;4.760;2023-09-08T13:20:09;8.00;;;5.57;;
20671;SDS011;10495;50.922;4.760;2023-09-08T13:22:35;7.00;;;5.28;;
20671;SDS011;10495;50.922;4.760;2023-09-08T13:25:01;7.05;;;5.75;;
20671;SDS011;10495;50.922;4.760;2023-09-08T13:27:26;6.45;;;5.80;;
20671;SDS011;10495;50.922;4.760;2023-09-08T13:30:07;6.45;;;5.82;;
20671;SDS011;10495;50.922;4.760;2023-09-08T13:32:34;7.50;;;5.63;;
20671;SDS011;10495;50.922;4.760;2023-09-08T13:35:00;7.15;;;5.60;;
20671;SDS011;10495;50.922;4.760;2023-09-08T13:37:26;5.93;;;5.30;;
20671;SDS011;10495;50.922;4.760;2023-09-08T13:39:51;7.55;;;5.30;;
20671;SDS011;10495;50.922;4.760;2023-09-08T13:42:17;8.13;;;5.97;;
20671;SDS011;10495;50.922;4.760;2023-09-08T13:44:43;7.90;;;6.22;;
20671;SDS011;10495;50.922;4.760;2023-09-08T13:47:08;6.68;;;5.38;;
20671;SDS011;10495;50.922;4.760;2023-09-08T13:49:34;6.25;;;5.53;;
20671;SDS011;10495;50.922;4.760;2023-09-08T13:51:59;12.18;;;5.85;;
20671;SDS011;10495;50.922;4.760;2023-09-08T13:54:25;8.05;;;5.63;;
20671;SDS011;10495;50.922;4.760;2023-09-08T13:57:01;7.82;;;6.38;;
20671;SDS011;10495;50.922;4.760;2023-09-08T13:59:28;6.50;;;5.85;;
20671;SDS011;10495;50.922;4.760;2023-09-08T14:01:54;6.68;;;5.68;;
20671;SDS011;10495;50.922;4.760;2023-09-08T14:04:21;6.43;;;5.80;;
20671;SDS011;10495;50.922;4.760;2023-09-08T14:06:46;9.90;;;5.85;;
20671;SDS011;10495;50.922;4.760;2023-09-08T14:09:13;6.55;;;5.93;;
20671;SDS011;10495;50.922;4.760;2023-09-08T14:11:39;10.65;;;6.00;;
20671;SDS011;10495;50.922;4.760;2023-09-08T14:14:04;7.03;;;5.22;;
20671;SDS011;10495;50.922;4.760;2023-09-08T14:16:30;8.77;;;5.57;;
20671;SDS011;10495;50.922;4.760;2023-09-08T14:18:56;7.10;;;5.88;;
20671;SDS011;10495;50.922;4.760;2023-09-08T14:21:21;8.65;;;6.00;;
20671;SDS011;10495;50.922;4.760;2023-09-08T14:23:47;9.93;;;5.60;;
20671;SDS011;10495;50.922;4.760;2023-09-08T14:26:12;7.10;;;5.53;;
20671;SDS011;10495;50.922;4.760;2023-09-08T14:28:38;7.28;;;5.85;;
20671;SDS011;10495;50.922;4.760;2023-09-08T14:31:04;6.75;;;5.13;;
20671;SDS011;10495;50.922;4.760;2023-09-08T14:33:30;7.65;;;5.75;;
20671;SDS011;10495;50.922;4.760;2023-09-08T14:35:56;7.38;;;6.10;;
20671;SDS011;10495;50.922;4.760;2023-09-08T14:38:22;8.15;;;6.28;;
20671;SDS011;10495;50.922;4.760;2023-09-08T14:40:58;8.13;;;5.70;;
20671;SDS011;10495;50.922;4.760;2023-09-08T14:43:25;11.38;;;6.10;;
20671;SDS011;10495;50.922;4.760;2023-09-08T14:45:52;9.82;;;6.18;;
20671;SDS011;10495;50.922;4.760;2023-09-08T14:48:18;7.00;;;5.65;;
20671;SDS011;10495;50.922;4.760;2023-09-08T14:50:45;8.23;;;6.13;;
20671;SDS011;10495;50.922;4.760;2023-09-08T14:53:11;7.65;;;5.85;;
20671;SDS011;10495;50.922;4.760;2023-09-08T14:55:37;9.15;;;6.05;;
20671;SDS011;10495;50.922;4.760;2023-09-08T14:58:03;13.27;;;6.30;;